Time;durP1;ratioP1;P1;durP2;ratioP2;P2;SDS_P1;SDS_P2;PMS_P1;PMS_P2;Temp;Humidity;BMP_temperature;BMP_pressure;BME280_temperature;BME280_humidity;BME280_pressure;Samples;Min_cycle;Max_cycle;Signal;HPM_P1;HPM_P2
2022/03/29 00:01:31;;;;;;;13.32;10.02;;;8.40;99.90;;;;;;5044131;28;20025;-73
2022/03/29 00:03:57;;;;;;;13.68;9.70;;;8.30;99.90;;;;;;5033022;28;20037;-74
2022/03/29 00:06:22;;;;;;;13.02;9.50;;;8.40;99.90;;;;;;5044209;28;20386;-74
2022/03/29 00:08:48;;;;;;;11.80;9.73;;;8.30;99.90;;;;;;5045561;28;20055;-74
2022/03/29 00:11:14;;;;;;;13.43;9.18;;;8.10;99.90;;;;;;5037120;28;20018;-74
2022/03/29 00:13:40;;;;;;;15.98;10.25;;;8.00;99.90;;;;;;5042335;28;20021;-74
2022/03/29 00:16:05;;;;;;;12.52;9.55;;;8.00;99.90;;;;;;5042851;28;20604;-74
2022/03/29 00:18:31;;;;;;;13.50;10.13;;;7.90;99.90;;;;;;5040782;28;20108;-74
2022/03/29 00:20:57;;;;;;;13.27;10.30;;;7.90;99.90;;;;;;5038802;28;20474;-74
2022/03/29 00:23:22;;;;;;;13.75;11.10;;;7.70;99.90;;;;;;5044842;28;20153;-74
2022/03/29 00:25:48;;;;;;;14.60;10.55;;;7.50;99.90;;;;;;5040956;28;20021;-76
2022/03/29 00:28:14;;;;;;;12.88;10.10;;;7.60;99.90;;;;;;5036847;28;20033;-76
2022/03/29 00:30:40;;;;;;;12.02;9.90;;;7.60;99.90;;;;;;5035600;28;20483;-76
2022/03/29 00:33:06;;;;;;;13.48;10.52;;;7.50;99.90;;;;;;5033425;28;20025;-76
2022/03/29 00:35:31;;;;;;;12.68;9.70;;;7.60;99.90;;;;;;5036624;28;20502;-75
2022/03/29 00:37:57;;;;;;;12.43;10.25;;;7.40;99.90;;;;;;5035528;28;20052;-75
2022/03/29 00:40:22;;;;;;;13.93;10.27;;;7.50;99.90;;;;;;5043230;28;20119;-74
2022/03/29 00:42:48;;;;;;;12.88;10.05;;;7.50;99.90;;;;;;5049793;28;20491;-76
2022/03/29 00:45:14;;;;;;;13.98;9.63;;;7.40;99.90;;;;;;5032903;28;20067;-76
2022/03/29 00:47:40;;;;;;;13.73;10.07;;;7.30;99.90;;;;;;5046392;28;20021;-75
2022/03/29 00:50:06;;;;;;;15.32;10.25;;;7.40;99.90;;;;;;5037029;28;20021;-75
2022/03/29 00:52:33;;;;;;;14.02;9.85;;;7.50;99.90;;;;;;5039190;28;20471;-75
2022/03/29 00:55:00;;;;;;;11.50;9.93;;;7.40;99.90;;;;;;5030532;28;20160;-74
2022/03/29 00:57:28;;;;;;;12.68;9.65;;;7.30;99.90;;;;;;5045423;28;20100;-75
2022/03/29 00:59:55;;;;;;;14.23;10.40;;;7.20;99.90;;;;;;5038733;28;20038;-75
2022/03/29 01:02:20;;;;;;;12.45;9.68;;;7.30;99.90;;;;;;5033645;28;20121;-74
2022/03/29 01:04:46;;;;;;;12.05;10.13;;;7.40;99.90;;;;;;5031514;28;20471;-73
2022/03/29 01:07:12;;;;;;;15.30;11.23;;;7.20;99.90;;;;;;5023183;28;20048;-74
2022/03/29 01:09:38;;;;;;;13.02;10.80;;;7.20;99.90;;;;;;5020391;28;20060;-74
2022/03/29 01:12:03;;;;;;;15.48;11.30;;;7.20;99.90;;;;;;5023089;28;20107;-75
2022/03/29 01:14:29;;;;;;;15.02;11.18;;;7.20;99.90;;;;;;5016167;28;20551;-75
2022/03/29 01:19:43;;;;;;;16.27;11.50;;;7.20;99.90;;;;;;5020393;28;20064;-76
2022/03/29 01:22:10;;;;;;;15.75;11.38;;;7.20;99.90;;;;;;5032281;28;20625;-76
2022/03/29 01:24:37;;;;;;;15.52;11.40;;;7.20;99.90;;;;;;5027728;28;20022;-76
2022/03/29 01:27:05;;;;;;;16.02;11.00;;;7.20;99.90;;;;;;5025068;28;20483;-76
2022/03/29 01:29:34;;;;;;;15.07;10.88;;;7.10;99.90;;;;;;5018718;28;20060;-77
2022/03/29 01:32:06;;;;;;;16.55;11.27;;;7.20;99.90;;;;;;5019889;28;20026;-77
2022/03/29 01:34:34;;;;;;;13.05;11.05;;;6.90;99.90;;;;;;5019707;28;20030;-77
2022/03/29 01:37:00;;;;;;;14.88;11.15;;;6.80;99.90;;;;;;5018612;28;20149;-76
2022/03/29 01:39:25;;;;;;;14.45;11.35;;;6.90;99.90;;;;;;5025631;28;20108;-75
2022/03/29 01:41:51;;;;;;;15.25;11.73;;;6.90;99.90;;;;;;5026064;28;20120;-77
2022/03/29 01:44:16;;;;;;;16.85;10.88;;;6.70;99.90;;;;;;5021256;28;20522;-77
2022/03/29 01:46:42;;;;;;;15.57;11.15;;;6.80;99.90;;;;;;5019853;28;20531;-75
2022/03/29 01:49:10;;;;;;;16.38;11.48;;;6.80;99.90;;;;;;5024772;28;20547;-76
2022/03/29 01:51:35;;;;;;;12.15;10.65;;;6.90;99.90;;;;;;5026197;28;20495;-77
2022/03/29 01:54:02;;;;;;;16.48;10.98;;;6.70;99.90;;;;;;5011888;28;20040;-77
2022/03/29 01:56:32;;;;;;;13.70;11.02;;;6.90;99.90;;;;;;5025112;28;20410;-76
2022/03/29 01:58:58;;;;;;;17.20;11.88;;;7.00;99.90;;;;;;5020911;28;20025;-76
2022/03/29 02:01:24;;;;;;;12.60;11.30;;;7.10;99.90;;;;;;5032469;28;20458;-76
2022/03/29 02:03:50;;;;;;;15.73;11.35;;;7.10;99.90;;;;;;5024566;28;20057;-76
2022/03/29 02:06:15;;;;;;;14.07;11.75;;;7.10;99.90;;;;;;5026317;28;20018;-77
2022/03/29 02:08:41;;;;;;;17.27;11.90;;;6.90;99.90;;;;;;5021141;28;20048;-77
2022/03/29 02:11:07;;;;;;;15.07;11.55;;;6.90;99.90;;;;;;5031103;28;20483;-75
2022/03/29 02:13:33;;;;;;;14.55;11.25;;;7.00;99.90;;;;;;5031220;28;20610;-76
2022/03/29 02:15:59;;;;;;;15.80;11.50;;;7.00;99.90;;;;;;5031352;28;20385;-74
2022/03/29 02:18:25;;;;;;;15.05;11.40;;;7.10;99.90;;;;;;5020380;28;20041;-75
2022/03/29 02:20:52;;;;;;;13.93;11.48;;;7.10;99.90;;;;;;5019072;28;20076;-73
2022/03/29 02:23:17;;;;;;;15.73;12.45;;;7.20;99.90;;;;;;5030969;28;20486;-74
2022/03/29 02:25:47;;;;;;;14.90;11.10;;;7.20;99.90;;;;;;5029730;28;20056;-73
2022/03/29 02:28:13;;;;;;;15.63;11.30;;;7.30;99.90;;;;;;5020935;28;20017;-73
2022/03/29 02:30:38;;;;;;;18.55;11.88;;;7.40;99.90;;;;;;5017131;28;20506;-75
2022/03/29 02:33:07;;;;;;;16.98;11.52;;;7.40;99.90;;;;;;5012394;28;20033;-75
2022/03/29 02:35:33;;;;;;;15.52;11.43;;;7.40;99.90;;;;;;5012850;28;20022;-73
2022/03/29 02:37:59;;;;;;;16.77;12.65;;;7.10;99.90;;;;;;5023642;28;20553;-73
2022/03/29 02:40:26;;;;;;;15.48;11.75;;;6.90;99.90;;;;;;5025371;28;20037;-73
2022/03/29 02:42:55;;;;;;;14.52;11.93;;;7.00;99.90;;;;;;5020628;28;20499;-74
2022/03/29 02:45:23;;;;;;;14.93;12.20;;;6.90;99.90;;;;;;5030582;28;20026;-73
2022/03/29 02:47:50;;;;;;;16.00;12.23;;;7.00;99.90;;;;;;5022909;28;20048;-74
2022/03/29 02:50:17;;;;;;;16.77;12.02;;;6.90;99.90;;;;;;5023720;28;20113;-74
2022/03/29 02:52:48;;;;;;;16.98;12.18;;;6.80;99.90;;;;;;5019868;28;20371;-74
2022/03/29 02:55:15;;;;;;;13.38;11.70;;;6.60;99.90;;;;;;5018564;28;20036;-75
2022/03/29 02:57:41;;;;;;;14.43;11.00;;;6.70;99.90;;;;;;5020444;28;20022;-75
2022/03/29 03:00:07;;;;;;;16.05;12.18;;;6.60;99.90;;;;;;5028712;28;20048;-74
2022/03/29 03:02:33;;;;;;;16.88;11.88;;;6.60;99.90;;;;;;5030091;28;20391;-75
2022/03/29 03:04:59;;;;;;;15.65;11.40;;;6.70;99.90;;;;;;5012835;28;20022;-75
2022/03/29 03:07:25;;;;;;;15.05;11.70;;;6.60;99.90;;;;;;5022916;28;20024;-75
2022/03/29 03:09:51;;;;;;;16.13;13.13;;;6.70;99.90;;;;;;5017261;28;20026;-76
2022/03/29 03:12:16;;;;;;;16.70;12.23;;;6.60;99.90;;;;;;5019194;28;20030;-76
2022/03/29 03:14:43;;;;;;;17.83;13.02;;;6.60;99.90;;;;;;5025217;28;20711;-76
2022/03/29 03:17:08;;;;;;;15.48;12.07;;;6.60;99.90;;;;;;5022716;28;20514;-76
2022/03/29 03:19:34;;;;;;;17.13;12.50;;;6.50;99.90;;;;;;5018219;28;20108;-76
2022/03/29 03:21:59;;;;;;;14.93;12.05;;;6.20;99.90;;;;;;5022928;28;20014;-77
2022/03/29 03:24:25;;;;;;;16.17;12.38;;;6.00;99.90;;;;;;5012942;28;20689;-76
2022/03/29 03:26:51;;;;;;;14.63;11.80;;;6.10;99.90;;;;;;5020899;28;20026;-75
2022/03/29 03:29:16;;;;;;;18.13;12.35;;;6.20;99.90;;;;;;5018202;28;20033;-75
2022/03/29 03:31:42;;;;;;;14.52;11.63;;;6.30;99.90;;;;;;5021401;28;20551;-76
2022/03/29 03:34:07;;;;;;;15.40;12.07;;;6.30;99.90;;;;;;5025125;28;20088;-75
2022/03/29 03:36:33;;;;;;;14.60;12.32;;;6.20;99.90;;;;;;5020205;28;20409;-75
2022/03/29 03:38:58;;;;;;;14.15;12.13;;;6.20;99.90;;;;;;5015271;28;20029;-76
2022/03/29 03:41:24;;;;;;;19.55;11.90;;;5.90;99.90;;;;;;5019672;28;20038;-75
2022/03/29 03:43:49;;;;;;;15.57;12.15;;;5.80;99.90;;;;;;5018025;28;20029;-74
2022/03/29 03:46:15;;;;;;;16.20;12.85;;;6.00;99.90;;;;;;5022481;28;20519;-75
2022/03/29 03:48:40;;;;;;;28.40;25.30;;;6.00;99.90;;;;;;5025144;28;20034;-76
2022/03/29 03:51:06;;;;;;;21.10;17.30;;;6.20;99.90;;;;;;5020586;28;20128;-75
2022/03/29 03:53:32;;;;;;;17.55;12.45;;;6.20;99.90;;;;;;5015489;28;20022;-75
2022/03/29 03:55:58;;;;;;;15.57;12.93;;;6.20;99.90;;;;;;5019474;28;20029;-77
2022/03/29 03:58:23;;;;;;;14.52;11.88;;;6.20;99.90;;;;;;5018044;28;20108;-76
2022/03/29 04:00:49;;;;;;;16.70;12.35;;;6.10;99.90;;;;;;5031109;28;20462;-76
2022/03/29 04:03:14;;;;;;;14.77;11.77;;;6.30;99.90;;;;;;5017828;28;20017;-76
2022/03/29 04:05:40;;;;;;;17.38;12.30;;;6.30;99.90;;;;;;5025256;28;20022;-77
2022/03/29 04:08:06;;;;;;;15.32;13.00;;;6.20;99.90;;;;;;5017441;28;20462;-76
2022/03/29 04:10:33;;;;;;;15.35;12.90;;;6.20;99.90;;;;;;5023935;28;20056;-77
2022/03/29 04:13:00;;;;;;;20.35;13.27;;;6.20;99.90;;;;;;5028385;28;20018;-76
2022/03/29 04:15:26;;;;;;;17.00;13.55;;;6.10;99.90;;;;;;5024992;28;20022;-76
2022/03/29 04:17:51;;;;;;;20.73;13.65;;;6.10;99.90;;;;;;5021294;28;20037;-76
2022/03/29 04:20:17;;;;;;;18.30;13.93;;;6.20;99.90;;;;;;5024858;28;20033;-76
2022/03/29 04:22:42;;;;;;;18.35;13.98;;;6.10;99.90;;;;;;5028163;28;20026;-74
2022/03/29 04:25:08;;;;;;;16.98;13.40;;;6.10;99.90;;;;;;5022808;28;20132;-76
2022/03/29 04:27:34;;;;;;;20.10;14.98;;;5.90;99.90;;;;;;5032004;28;20071;-74
2022/03/29 04:29:59;;;;;;;18.77;13.02;;;5.90;99.90;;;;;;5022736;28;20025;-75
2022/03/29 04:32:25;;;;;;;19.70;12.85;;;6.00;99.90;;;;;;5018255;28;20034;-75
2022/03/29 04:34:50;;;;;;;19.48;13.75;;;6.00;99.90;;;;;;5023727;28;20033;-75
2022/03/29 04:37:16;;;;;;;20.58;14.05;;;5.80;99.90;;;;;;5021097;28;20393;-75
2022/03/29 04:39:41;;;;;;;18.92;14.40;;;5.70;99.90;;;;;;5025187;28;20506;-75
2022/03/29 04:42:07;;;;;;;17.17;13.32;;;5.60;99.90;;;;;;5027569;28;20411;-75
2022/03/29 04:44:34;;;;;;;19.77;13.38;;;5.60;99.90;;;;;;5023370;28;20380;-74
2022/03/29 04:47:00;;;;;;;16.42;12.52;;;5.40;99.90;;;;;;5018395;28;20421;-75
2022/03/29 04:49:25;;;;;;;19.02;13.27;;;5.30;99.90;;;;;;5023263;28;20091;-75
2022/03/29 04:51:51;;;;;;;21.92;13.25;;;5.30;99.90;;;;;;5020377;28;20487;-75
2022/03/29 04:54:17;;;;;;;17.20;13.18;;;5.30;99.90;;;;;;5025526;28;20058;-75
2022/03/29 04:56:42;;;;;;;16.17;13.07;;;5.40;99.90;;;;;;5027455;28;20025;-75
2022/03/29 04:59:08;;;;;;;18.20;13.32;;;5.40;99.90;;;;;;5021210;28;20049;-75
2022/03/29 05:01:33;;;;;;;18.88;13.65;;;5.30;99.90;;;;;;5033498;28;20031;-75
2022/03/29 05:03:59;;;;;;;17.05;13.25;;;5.30;99.90;;;;;;5032980;28;20635;-75
2022/03/29 05:06:24;;;;;;;18.30;13.32;;;5.20;99.90;;;;;;5034070;28;20480;-75
2022/03/29 05:08:50;;;;;;;19.95;13.82;;;5.20;99.90;;;;;;5022920;28;20037;-75
2022/03/29 05:11:16;;;;;;;17.98;13.23;;;5.20;99.90;;;;;;5026472;28;20038;-76
2022/03/29 05:13:41;;;;;;;16.80;13.90;;;5.10;99.90;;;;;;5021619;28;20395;-75
2022/03/29 05:16:07;;;;;;;17.02;13.65;;;5.20;99.90;;;;;;5017251;28;20061;-75
2022/03/29 05:18:32;;;;;;;18.25;14.35;;;5.00;99.90;;;;;;5013666;28;20025;-75
2022/03/29 05:20:58;;;;;;;17.83;13.90;;;5.00;99.90;;;;;;5013347;28;20407;-73
2022/03/29 05:23:23;;;;;;;19.20;14.43;;;5.00;99.90;;;;;;5013623;28;20029;-75
2022/03/29 05:25:49;;;;;;;21.48;14.50;;;4.90;99.90;;;;;;5027016;28;20590;-74
2022/03/29 05:28:15;;;;;;;18.25;14.50;;;5.00;99.90;;;;;;5013542;28;20022;-74
2022/03/29 05:30:41;;;;;;;19.35;14.10;;;5.00;99.90;;;;;;5012070;28;20022;-74
2022/03/29 05:33:06;;;;;;;21.60;14.85;;;5.20;99.90;;;;;;5021749;28;20080;-75
2022/03/29 05:35:33;;;;;;;20.25;14.82;;;5.20;99.90;;;;;;5019861;28;20153;-76
2022/03/29 05:38:02;;;;;;;18.52;14.50;;;5.30;99.90;;;;;;5023673;28;20026;-76
2022/03/29 05:40:28;;;;;;;28.30;15.82;;;5.20;99.90;;;;;;5027804;28;20041;-75
2022/03/29 05:42:55;;;;;;;19.98;15.27;;;5.30;99.90;;;;;;5024800;28;20030;-75
2022/03/29 05:45:21;;;;;;;18.50;15.27;;;5.50;99.90;;;;;;5026713;28;20494;-77
2022/03/29 05:50:31;;;;;;;22.42;15.48;;;5.50;99.90;;;;;;5026089;28;20036;-76
2022/03/29 05:52:58;;;;;;;16.75;13.35;;;5.60;99.90;;;;;;5023517;28;20025;-76
2022/03/29 05:55:24;;;;;;;17.08;14.32;;;5.70;99.90;;;;;;5027604;28;20017;-75
2022/03/29 05:57:50;;;;;;;18.63;14.32;;;5.60;99.90;;;;;;5022850;28;20022;-75
2022/03/29 06:00:17;;;;;;;20.30;14.00;;;5.80;99.90;;;;;;5031743;28;20564;-75
2022/03/29 06:02:43;;;;;;;17.85;14.38;;;5.90;99.90;;;;;;5032573;28;20014;-76
2022/03/29 06:05:09;;;;;;;17.73;14.35;;;6.00;99.90;;;;;;5026933;28;20034;-76
2022/03/29 06:07:35;;;;;;;19.20;14.10;;;6.20;99.90;;;;;;5027895;28;20056;-76
2022/03/29 06:10:05;;;;;;;19.05;14.13;;;6.00;99.90;;;;;;5019363;28;20060;-76
2022/03/29 06:12:31;;;;;;;17.17;13.60;;;6.20;99.90;;;;;;5018569;28;20088;-76
2022/03/29 06:14:57;;;;;;;18.73;14.00;;;6.20;99.90;;;;;;5025955;28;20061;-76
2022/03/29 06:17:22;;;;;;;18.48;14.98;;;6.20;99.90;;;;;;5026006;28;20119;-76
2022/03/29 06:19:48;;;;;;;19.70;14.80;;;6.10;99.90;;;;;;5017948;28;20171;-76
2022/03/29 06:22:14;;;;;;;28.48;15.50;;;6.30;99.90;;;;;;5032048;28;20489;-76
2022/03/29 06:24:40;;;;;;;18.17;14.30;;;6.40;99.90;;;;;;5026002;28;20030;-75
2022/03/29 06:27:06;;;;;;;20.65;14.93;;;6.60;99.90;;;;;;5024214;28;20021;-75
2022/03/29 06:29:34;;;;;;;22.73;16.23;;;6.70;99.90;;;;;;5017600;28;20112;-75
2022/03/29 06:32:00;;;;;;;22.90;15.10;;;6.90;99.90;;;;;;5020222;28;20400;-78
2022/03/29 06:34:26;;;;;;;21.52;15.30;;;6.90;99.90;;;;;;5025366;28;20519;-77
2022/03/29 06:36:52;;;;;;;19.83;15.27;;;6.90;99.90;;;;;;5025805;28;20083;-77
2022/03/29 06:39:18;;;;;;;19.70;14.98;;;7.10;99.90;;;;;;5017995;28;20495;-76
2022/03/29 06:41:43;;;;;;;22.25;15.23;;;7.20;99.90;;;;;;5022732;28;20063;-77
2022/03/29 06:44:10;;;;;;;21.42;15.45;;;7.20;99.90;;;;;;5026145;28;20018;-76
2022/03/29 06:46:37;;;;;;;21.40;16.08;;;7.30;99.90;;;;;;5030654;28;20017;-76
2022/03/29 06:49:03;;;;;;;21.60;15.57;;;7.40;99.90;;;;;;5026080;28;20034;-75
2022/03/29 06:51:30;;;;;;;21.38;16.48;;;7.50;99.90;;;;;;5031523;28;20055;-76
2022/03/29 06:53:56;;;;;;;20.25;15.85;;;7.60;99.90;;;;;;5032009;28;20108;-76
2022/03/29 06:56:21;;;;;;;18.85;15.02;;;7.70;99.90;;;;;;5017723;28;20101;-76
2022/03/29 06:58:47;;;;;;;24.00;21.55;;;7.70;99.90;;;;;;5018293;28;20035;-76
2022/03/29 07:01:12;;;;;;;63.80;58.33;;;7.80;99.90;;;;;;5017452;28;20110;-76
2022/03/29 07:03:39;;;;;;;32.85;29.65;;;8.00;99.90;;;;;;5025127;28;20221;-74
2022/03/29 07:06:05;;;;;;;21.55;19.27;;;8.00;99.90;;;;;;5025069;28;20025;-76
2022/03/29 07:08:31;;;;;;;20.17;17.35;;;8.00;99.90;;;;;;5018701;28;20079;-76
2022/03/29 07:13:41;;;;;;;16.65;13.85;;;8.00;99.90;;;;;;5022346;28;20427;-76
2022/03/29 07:16:09;;;;;;;23.77;15.50;;;8.00;99.90;;;;;;5025155;28;20069;-75
2022/03/29 07:18:35;;;;;;;17.60;13.85;;;8.00;99.90;;;;;;5021336;28;20021;-75
2022/03/29 07:21:01;;;;;;;17.95;14.48;;;8.10;99.90;;;;;;5016801;28;20026;-76
2022/03/29 07:23:29;;;;;;;17.90;13.23;;;8.30;99.90;;;;;;5031590;28;20096;-77
2022/03/29 07:25:55;;;;;;;19.77;13.98;;;8.20;99.90;;;;;;5027126;28;20109;-76
2022/03/29 07:28:23;;;;;;;19.67;13.52;;;8.20;99.90;;;;;;5021666;28;20108;-76
2022/03/29 07:30:49;;;;;;;16.75;13.20;;;8.30;99.90;;;;;;5018044;28;20025;-76
2022/03/29 07:33:17;;;;;;;21.00;14.00;;;8.30;99.90;;;;;;5021609;28;20022;-77
2022/03/29 07:35:43;;;;;;;17.60;14.48;;;8.30;99.90;;;;;;5026981;28;20100;-75
2022/03/29 07:38:09;;;;;;;19.77;14.20;;;8.40;99.90;;;;;;5028515;28;20112;-76
2022/03/29 07:40:37;;;;;;;20.05;14.20;;;8.50;99.90;;;;;;5031686;28;20037;-76
2022/03/29 07:43:04;;;;;;;19.98;14.50;;;8.50;99.90;;;;;;5030317;28;20072;-75
2022/03/29 07:45:30;;;;;;;20.13;15.90;;;8.50;99.90;;;;;;5026275;28;20033;-76
2022/03/29 07:47:56;;;;;;;19.70;14.90;;;8.50;99.90;;;;;;5034841;28;20022;-76
2022/03/29 07:50:24;;;;;;;18.38;14.90;;;8.60;99.90;;;;;;5020656;28;20028;-76
2022/03/29 07:52:50;;;;;;;22.00;14.63;;;8.70;99.90;;;;;;5030916;28;20028;-75
2022/03/29 07:55:15;;;;;;;17.20;14.27;;;8.80;99.90;;;;;;5029565;28;20025;-74
2022/03/29 07:57:41;;;;;;;23.45;14.23;;;8.80;99.90;;;;;;5035131;28;20028;-76
2022/03/29 08:02:55;;;;;;;21.05;15.93;;;8.90;99.90;;;;;;5028820;28;20109;-77
2022/03/29 08:05:21;;;;;;;18.80;15.73;;;8.90;99.90;;;;;;5022519;28;20487;-76
2022/03/29 08:07:47;;;;;;;23.13;16.15;;;9.10;99.90;;;;;;5020111;28;20026;-76
2022/03/29 08:10:13;;;;;;;23.95;15.50;;;9.20;99.90;;;;;;5026129;28;20144;-76
2022/03/29 08:12:40;;;;;;;21.80;17.50;;;9.30;99.90;;;;;;5028098;28;20515;-76
2022/03/29 08:15:08;;;;;;;20.70;16.38;;;9.30;99.90;;;;;;5015088;28;20087;-75
2022/03/29 08:17:33;;;;;;;20.63;17.00;;;9.30;99.90;;;;;;5029130;28;20064;-75
2022/03/29 08:19:59;;;;;;;21.95;17.05;;;9.30;99.90;;;;;;5026928;28;20072;-76
2022/03/29 08:22:25;;;;;;;23.60;17.83;;;9.40;99.90;;;;;;5014844;28;20118;-76
2022/03/29 08:24:51;;;;;;;25.60;17.98;;;9.40;99.90;;;;;;5026781;28;20022;-76
2022/03/29 08:27:16;;;;;;;22.33;17.17;;;9.50;99.90;;;;;;5029579;28;20021;-76
2022/03/29 08:29:43;;;;;;;21.83;17.13;;;9.50;99.90;;;;;;5025323;28;20060;-76
2022/03/29 08:32:08;;;;;;;24.98;17.38;;;9.50;99.90;;;;;;5027635;28;20498;-75
2022/03/29 08:34:34;;;;;;;22.50;17.52;;;9.60;99.90;;;;;;5021086;28;20030;-76
2022/03/29 08:36:59;;;;;;;21.75;18.02;;;9.70;99.90;;;;;;5020819;28;20041;-75
2022/03/29 08:39:25;;;;;;;24.00;18.17;;;9.70;99.90;;;;;;5025155;28;20030;-75
2022/03/29 08:41:59;;;;;;;26.52;18.20;;;9.70;99.90;;;;;;5027311;28;20071;-76
2022/03/29 08:44:26;;;;;;;25.23;18.00;;;9.80;99.90;;;;;;5023203;28;20045;-76
2022/03/29 08:46:52;;;;;;;23.65;17.83;;;9.70;99.90;;;;;;5020815;28;20030;-77
2022/03/29 08:49:19;;;;;;;24.90;18.33;;;10.00;99.90;;;;;;5025086;28;20047;-76
2022/03/29 08:51:45;;;;;;;23.50;18.10;;;10.00;99.90;;;;;;5025986;28;20037;-76
2022/03/29 08:54:12;;;;;;;23.20;17.67;;;10.20;99.90;;;;;;5023745;28;20026;-76
2022/03/29 08:56:39;;;;;;;23.83;18.42;;;10.20;99.90;;;;;;5020767;28;20029;-77
2022/03/29 08:59:05;;;;;;;26.23;19.65;;;10.20;99.90;;;;;;5023200;28;20373;-76
2022/03/29 09:01:31;;;;;;;23.67;18.80;;;10.30;99.90;;;;;;5029960;28;20101;-76
2022/03/29 09:04:14;;;;;;;26.23;19.17;;;10.40;99.90;;;;;;5024979;28;20026;-76
2022/03/29 09:07:01;;;;;;;28.80;19.10;;;10.50;99.90;;;;;;5028887;28;20030;-76
2022/03/29 09:09:38;;;;;;;29.23;19.90;;;10.50;99.90;;;;;;5026110;28;20026;-76
2022/03/29 09:12:13;;;;;;;28.23;18.98;;;10.60;99.90;;;;;;5014315;28;20085;-77
2022/03/29 09:14:59;;;;;;;28.98;20.83;;;10.70;99.90;;;;;;5016044;28;20075;-77
2022/03/29 09:17:28;;;;;;;27.73;19.70;;;10.70;99.90;;;;;;5021250;28;20546;-77
2022/03/29 09:19:55;;;;;;;27.10;19.33;;;10.90;99.90;;;;;;5020405;28;20087;-76
2022/03/29 09:22:47;;;;;;;26.40;19.85;;;11.10;99.90;;;;;;5018600;28;20076;-76
2022/03/29 09:25:24;;;;;;;27.40;20.33;;;11.10;99.90;;;;;;5012444;28;20476;-75
2022/03/29 09:28:13;;;;;;;25.40;19.25;;;11.20;99.90;;;;;;5025611;28;20026;-76
2022/03/29 09:30:48;;;;;;;25.75;19.42;;;11.20;99.90;;;;;;5025690;28;20028;-75
2022/03/29 09:33:31;;;;;;;29.67;19.92;;;11.30;99.90;;;;;;5022255;28;20028;-76
2022/03/29 09:36:03;;;;;;;27.67;20.00;;;11.30;99.90;;;;;;5027611;28;20107;-76
2022/03/29 09:38:30;;;;;;;27.77;19.73;;;11.40;99.90;;;;;;5026315;28;20105;-76
2022/03/29 09:40:57;;;;;;;27.35;20.73;;;11.50;99.90;;;;;;5032748;28;20088;-76
2022/03/29 09:43:25;;;;;;;28.33;20.33;;;11.50;99.90;;;;;;5031810;28;20022;-76
2022/03/29 09:45:59;;;;;;;32.55;20.98;;;11.50;99.90;;;;;;5019859;28;20017;-77
2022/03/29 09:48:35;;;;;;;29.20;20.85;;;11.50;99.90;;;;;;5020293;28;20080;-76
2022/03/29 09:51:15;;;;;;;26.67;20.40;;;11.50;99.90;;;;;;5023690;28;20029;-76
2022/03/29 09:53:45;;;;;;;27.13;19.42;;;11.60;99.90;;;;;;5026297;28;20026;-76
2022/03/29 09:56:16;;;;;;;28.05;19.92;;;11.50;99.90;;;;;;5023625;28;20033;-77
2022/03/29 09:58:42;;;;;;;27.30;22.05;;;11.70;99.90;;;;;;5019476;28;20080;-75
2022/03/29 10:01:25;;;;;;;32.05;20.73;;;11.80;99.90;;;;;;5039830;28;20116;-76
2022/03/29 10:03:54;;;;;;;31.30;20.00;;;12.00;99.90;;;;;;5045976;28;20024;-76
2022/03/29 10:06:22;;;;;;;35.63;20.90;;;12.00;99.90;;;;;;5034402;28;20024;-76
2022/03/29 10:11:35;;;;;;;28.88;20.60;;;11.90;99.90;;;;;;5035263;28;20036;-77
2022/03/29 10:14:02;;;;;;;31.75;20.55;;;12.00;99.90;;;;;;5044064;28;20025;-77
2022/03/29 10:16:29;;;;;;;34.70;21.00;;;12.40;99.90;;;;;;5039294;28;20048;-76
2022/03/29 10:18:55;;;;;;;34.08;22.60;;;12.50;99.90;;;;;;5032044;28;20108;-77
2022/03/29 10:21:21;;;;;;;30.40;21.17;;;12.70;99.90;;;;;;5028481;28;20017;-76
2022/03/29 10:23:49;;;;;;;32.80;22.85;;;12.50;99.90;;;;;;5043998;28;20088;-77
2022/03/29 10:26:21;;;;;;;32.47;21.52;;;12.80;99.90;;;;;;5040857;28;20064;-77
2022/03/29 10:28:48;;;;;;;33.33;21.50;;;12.90;99.90;;;;;;5030048;28;20053;-76
2022/03/29 10:31:28;;;;;;;32.75;21.25;;;13.00;99.90;;;;;;5041126;28;20457;-77
2022/03/29 10:34:28;;;;;;;35.03;21.10;;;13.20;99.90;;;;;;5038367;28;20115;-76
2022/03/29 10:37:21;;;;;;;32.30;21.63;;;13.30;99.90;;;;;;5042998;28;20028;-77
2022/03/29 10:39:50;;;;;;;33.22;22.10;;;13.30;99.90;;;;;;5026197;28;20028;-77
2022/03/29 10:42:36;;;;;;;32.33;20.75;;;13.40;99.90;;;;;;5025006;28;20103;-77
2022/03/29 10:45:06;;;;;;;33.55;20.88;;;13.60;99.90;;;;;;5042955;28;20025;-77
2022/03/29 10:47:33;;;;;;;31.95;20.88;;;13.40;99.90;;;;;;5044026;28;20105;-77
2022/03/29 10:50:00;;;;;;;34.78;22.65;;;13.50;99.90;;;;;;5029713;28;20129;-77
2022/03/29 10:52:25;;;;;;;34.42;21.55;;;13.30;99.90;;;;;;5041968;28;20055;-76
2022/03/29 10:54:53;;;;;;;37.20;22.30;;;13.40;99.90;;;;;;5033464;28;20018;-77
2022/03/29 10:57:31;;;;;;;34.08;21.33;;;13.60;99.90;;;;;;5025843;28;20447;-76
2022/03/29 11:00:11;;;;;;;32.13;21.23;;;13.70;99.90;;;;;;5025909;28;20079;-77
2022/03/29 11:02:38;;;;;;;35.80;21.90;;;13.80;99.90;;;;;;5024669;28;20040;-75
2022/03/29 11:05:07;;;;;;;30.55;20.85;;;13.50;99.90;;;;;;5024136;28;20030;-77
2022/03/29 11:07:38;;;;;;;35.70;22.55;;;13.70;99.90;;;;;;5024620;28;20095;-77
2022/03/29 11:10:09;;;;;;;34.65;22.77;;;13.50;99.90;;;;;;5040699;28;20438;-77
2022/03/29 11:12:56;;;;;;;31.98;22.67;;;13.50;99.90;;;;;;5041893;28;20548;-77
2022/03/29 11:15:25;;;;;;;33.67;22.77;;;13.60;99.90;;;;;;5029407;28;20029;-77
2022/03/29 11:17:52;;;;;;;33.45;21.48;;;13.80;99.90;;;;;;5037213;28;20053;-77
2022/03/29 11:20:38;;;;;;;31.23;21.70;;;14.20;99.90;;;;;;5021874;28;20027;-76
2022/03/29 11:23:08;;;;;;;32.40;20.85;;;14.00;99.90;;;;;;5035588;28;20144;-77
2022/03/29 11:25:43;;;;;;;35.15;23.00;;;13.80;99.90;;;;;;5030129;28;20033;-76
2022/03/29 11:28:11;;;;;;;35.17;22.60;;;13.70;99.90;;;;;;5033255;28;20030;-77
2022/03/29 11:30:37;;;;;;;32.55;21.75;;;14.00;99.90;;;;;;5035630;28;20014;-78
2022/03/29 11:33:05;;;;;;;33.88;21.55;;;14.10;99.90;;;;;;5033808;28;20479;-76
2022/03/29 11:35:35;;;;;;;32.22;20.70;;;13.90;99.90;;;;;;5043691;28;20025;-77
2022/03/29 11:38:15;;;;;;;31.92;21.70;;;13.80;99.90;;;;;;5039700;28;20025;-77
2022/03/29 11:40:41;;;;;;;36.97;22.00;;;14.00;99.90;;;;;;5039513;28;20026;-77
2022/03/29 11:43:13;;;;;;;33.25;22.67;;;13.90;99.90;;;;;;5047728;28;20033;-77
2022/03/29 11:45:41;;;;;;;35.40;22.17;;;13.80;99.90;;;;;;5025594;28;20030;-77
2022/03/29 11:48:12;;;;;;;33.10;22.17;;;14.20;99.90;;;;;;5046420;28;20020;-77
2022/03/29 11:50:54;;;;;;;34.88;22.02;;;14.40;99.90;;;;;;5040698;28;20018;-77
2022/03/29 11:53:34;;;;;;;36.30;22.52;;;14.60;99.90;;;;;;5030721;28;20024;-77
2022/03/29 11:56:12;;;;;;;30.13;20.67;;;14.10;99.90;;;;;;5042847;28;20344;-77
2022/03/29 11:58:40;;;;;;;31.38;20.55;;;14.30;99.90;;;;;;5026356;28;20022;-74
2022/03/29 12:01:07;;;;;;;34.38;21.02;;;14.30;99.90;;;;;;5044784;28;20017;-77
2022/03/29 12:03:35;;;;;;;32.65;20.48;;;14.30;99.90;;;;;;5045297;28;20498;-77
2022/03/29 12:06:15;;;;;;;28.42;20.08;;;14.20;99.90;;;;;;5043280;28;20025;-77
2022/03/29 12:08:48;;;;;;;31.02;20.50;;;14.10;99.90;;;;;;5026481;28;20033;-77
2022/03/29 12:11:20;;;;;;;29.20;19.98;;;14.30;99.90;;;;;;5033377;28;20106;-77
2022/03/29 12:13:47;;;;;;;30.48;20.40;;;14.80;99.90;;;;;;5040816;28;20022;-77
2022/03/29 12:16:21;;;;;;;29.70;19.77;;;14.90;99.90;;;;;;5042492;28;20032;-77
2022/03/29 12:18:48;;;;;;;30.38;18.52;;;14.50;99.90;;;;;;5043400;28;20071;-76
2022/03/29 12:21:15;;;;;;;30.50;18.88;;;14.50;99.90;;;;;;5029343;28;20116;-77
2022/03/29 12:23:42;;;;;;;29.33;19.33;;;14.70;99.90;;;;;;5042122;28;20017;-77
2022/03/29 12:26:10;;;;;;;26.98;16.80;;;14.80;99.90;;;;;;5043444;28;20418;-76
2022/03/29 12:28:37;;;;;;;26.75;17.20;;;15.10;99.90;;;;;;5041015;28;20021;-76
2022/03/29 12:31:08;;;;;;;27.67;17.20;;;15.20;99.90;;;;;;5041484;28;20025;-72
2022/03/29 12:33:35;;;;;;;25.75;15.80;;;15.30;99.90;;;;;;5040054;28;20016;-76
2022/03/29 12:36:05;;;;;;;24.13;16.02;;;15.60;99.90;;;;;;5044957;28;20026;-77
2022/03/29 12:38:58;;;;;;;22.15;15.10;;;15.70;99.90;;;;;;5047252;28;20479;-77
2022/03/29 12:41:41;;;;;;;19.80;13.75;;;15.90;99.90;;;;;;5030965;28;20034;-77
2022/03/29 12:44:09;;;;;;;21.80;13.35;;;16.30;99.90;;;;;;5034868;28;20040;-77
2022/03/29 12:46:35;;;;;;;21.98;15.10;;;16.60;99.90;;;;;;5037307;28;20077;-77
2022/03/29 12:49:01;;;;;;;20.38;13.70;;;16.70;99.90;;;;;;5029429;28;20044;-77
2022/03/29 12:51:33;;;;;;;21.15;13.50;;;17.10;99.90;;;;;;5014263;28;20026;-76